Time;durP1;ratioP1;P1;durP2;ratioP2;P2;SDS_P1;SDS_P2;PMS_P1;PMS_P2;Temp;Humidity;BMP_temperature;BMP_pressure;BME280_temperature;BME280_humidity;BME280_pressure;Samples;Min_cycle;Max_cycle;Signal;HPM_P1;HPM_P2
2022/06/16 00:01:44;;;;;;;3.00;2.15;;;22.60;45.30;;;;;;5080677;28;20047;-50
2022/06/16 00:04:16;;;;;;;5.25;2.53;;;22.50;45.30;;;;;;5072957;28;20036;-48
2022/06/16 00:06:43;;;;;;;4.20;2.78;;;22.40;45.00;;;;;;5071282;28;20045;-50
2022/06/16 00:09:14;;;;;;;3.70;2.72;;;22.40;45.80;;;;;;5069098;28;20508;-50
2022/06/16 00:11:41;;;;;;;4.00;2.80;;;22.40;45.30;;;;;;5071364;28;20033;-49
2022/06/16 00:14:10;;;;;;;7.15;2.70;;;22.30;45.20;;;;;;5072348;28;20070;-51
2022/06/16 00:16:39;;;;;;;2.78;2.55;;;22.30;45.60;;;;;;5068951;28;20594;-49
2022/06/16 00:19:06;;;;;;;2.70;2.35;;;22.30;45.70;;;;;;5069457;28;20099;-49
2022/06/16 00:21:33;;;;;;;3.83;2.58;;;22.20;45.70;;;;;;5071366;28;20040;-49
2022/06/16 00:24:04;;;;;;;4.70;2.58;;;22.10;46.00;;;;;;5072178;28;20067;-48
2022/06/16 00:26:33;;;;;;;4.30;2.67;;;22.10;46.00;;;;;;5068126;28;20037;-48
2022/06/16 00:29:02;;;;;;;3.90;2.47;;;22.10;45.80;;;;;;5067364;28;20047;-49
2022/06/16 00:31:38;;;;;;;3.85;2.72;;;22.10;46.00;;;;;;5062582;28;20124;-49
2022/06/16 00:34:08;;;;;;;3.85;2.50;;;22.00;46.40;;;;;;5071515;28;20041;-51
2022/06/16 00:36:37;;;;;;;5.97;2.90;;;22.00;46.30;;;;;;5060536;28;20044;-51
2022/06/16 00:39:04;;;;;;;3.92;3.47;;;22.00;46.60;;;;;;5071638;28;20044;-48
2022/06/16 00:41:34;;;;;;;4.40;2.63;;;22.00;46.40;;;;;;5062553;28;20047;-49
2022/06/16 00:44:14;;;;;;;3.75;2.58;;;21.90;46.10;;;;;;5068876;28;20045;-49
2022/06/16 00:46:43;;;;;;;4.88;2.95;;;21.90;46.80;;;;;;5055541;28;20551;-51
2022/06/16 00:49:14;;;;;;;5.38;2.72;;;21.90;46.30;;;;;;5067195;28;20074;-50
2022/06/16 00:51:47;;;;;;;3.70;2.78;;;21.80;46.30;;;;;;5066812;28;20568;-48
2022/06/16 00:54:31;;;;;;;3.05;2.72;;;21.80;46.40;;;;;;5066113;28;20048;-52
2022/06/16 00:57:05;;;;;;;4.20;2.40;;;21.80;46.50;;;;;;5067304;28;20045;-48
2022/06/16 00:59:37;;;;;;;3.05;2.85;;;21.80;46.50;;;;;;5070544;28;20037;-49
2022/06/16 01:02:05;;;;;;;3.17;2.70;;;21.80;46.70;;;;;;5069195;28;20044;-48
2022/06/16 01:04:53;;;;;;;4.22;2.40;;;21.80;46.60;;;;;;5068529;28;20730;-49
2022/06/16 01:07:39;;;;;;;3.08;2.72;;;21.70;47.10;;;;;;5068168;28;20040;-52
2022/06/16 01:10:14;;;;;;;6.00;2.97;;;21.80;47.20;;;;;;5066453;28;20056;-50
2022/06/16 01:13:45;;;;;;;3.10;2.80;;;21.70;47.10;;;;;;5061202;28;20051;-52
2022/06/16 01:16:36;;;;;;;2.92;2.55;;;21.80;47.30;;;;;;5065641;28;20044;-49
2022/06/16 01:19:27;;;;;;;2.78;2.58;;;21.70;47.00;;;;;;5070288;28;20028;-48
2022/06/16 01:22:09;;;;;;;5.57;2.67;;;21.70;47.10;;;;;;5067847;28;20036;-51
2022/06/16 01:24:52;;;;;;;5.78;3.08;;;21.70;47.70;;;;;;5051412;28;20041;-51
2022/06/16 01:27:40;;;;;;;3.97;2.80;;;21.60;47.40;;;;;;5059099;28;20053;-50
2022/06/16 01:30:14;;;;;;;4.50;2.85;;;21.60;46.60;;;;;;5065388;28;20413;-52
2022/06/16 01:33:07;;;;;;;4.28;2.80;;;21.50;46.60;;;;;;5064303;28;20041;-48
2022/06/16 01:36:00;;;;;;;3.55;2.83;;;21.50;47.00;;;;;;5067964;28;20040;-53
2022/06/16 01:38:36;;;;;;;;;;;21.50;46.90;;;;;;5068410;28;20427;-52
2022/06/16 01:41:25;;;;;;;3.63;2.30;;;21.50;45.90;;;;;;5060600;28;19974;-50
2022/06/16 01:44:25;;;;;;;4.13;2.47;;;21.50;46.60;;;;;;5067311;28;20044;-50
2022/06/16 01:46:57;;;;;;;4.38;2.90;;;21.40;46.80;;;;;;5055389;28;20076;-52
2022/06/16 01:49:36;;;;;;;6.88;3.10;;;21.40;46.80;;;;;;5063796;28;20033;-49
2022/06/16 01:52:18;;;;;;;4.50;2.65;;;21.30;47.20;;;;;;5061273;28;20114;-54
2022/06/16 01:55:05;;;;;;;4.43;2.67;;;21.30;47.20;;;;;;5051222;28;20040;-51
2022/06/16 01:57:55;;;;;;;4.38;2.60;;;21.20;47.40;;;;;;5051555;28;20041;-51
2022/06/16 02:00:25;;;;;;;4.50;2.58;;;21.20;48.00;;;;;;5048957;28;20037;-50
2022/06/16 02:03:19;;;;;;;3.25;2.95;;;21.10;47.20;;;;;;5068648;28;20423;-49
2022/06/16 02:05:53;;;;;;;4.65;3.00;;;21.10;47.90;;;;;;5053275;28;20049;-54
2022/06/16 02:08:29;;;;;;;6.50;3.17;;;21.00;48.00;;;;;;5057161;28;20037;-53
2022/06/16 02:11:04;;;;;;;3.63;2.47;;;21.00;48.10;;;;;;5055516;28;20599;-52
2022/06/16 02:13:36;;;;;;;3.85;3.35;;;20.90;47.60;;;;;;5058308;28;20139;-54
2022/06/16 02:16:23;;;;;;;3.38;2.60;;;20.80;47.90;;;;;;5029717;28;20568;-53
2022/06/16 02:18:54;;;;;;;4.10;2.83;;;20.80;48.50;;;;;;5065051;28;20068;-49
2022/06/16 02:21:34;;;;;;;4.88;3.28;;;20.70;48.20;;;;;;5067201;28;20064;-53
2022/06/16 02:24:06;;;;;;;3.75;2.92;;;20.70;48.90;;;;;;5048858;28;20041;-51
2022/06/16 02:26:37;;;;;;;4.45;2.63;;;20.60;48.70;;;;;;5047221;28;20049;-50
2022/06/16 02:29:26;;;;;;;4.03;2.70;;;20.50;49.20;;;;;;5050286;28;20036;-52
2022/06/16 02:32:01;;;;;;;4.45;2.40;;;20.50;49.10;;;;;;5062565;28;20044;-53
2022/06/16 02:34:50;;;;;;;2.72;2.53;;;20.40;49.00;;;;;;5050247;28;20041;-49
2022/06/16 02:37:19;;;;;;;3.70;3.13;;;20.30;49.30;;;;;;5047691;28;20082;-49
2022/06/16 02:39:55;;;;;;;3.45;3.13;;;20.20;48.80;;;;;;5070187;28;20048;-49
2022/06/16 02:42:34;;;;;;;3.60;2.45;;;20.10;49.20;;;;;;5057502;28;20041;-50
2022/06/16 02:45:28;;;;;;;3.60;2.67;;;20.00;49.30;;;;;;5057605;28;20071;-50
2022/06/16 02:48:46;;;;;;;3.47;2.85;;;19.90;49.60;;;;;;5059007;28;20116;-52
2022/06/16 02:51:57;;;;;;;3.25;2.85;;;19.80;49.70;;;;;;5036169;28;20488;-48
2022/06/16 02:54:31;;;;;;;3.90;2.60;;;19.70;49.70;;;;;;5066666;28;20565;-54
2022/06/16 02:57:34;;;;;;;4.30;2.47;;;19.60;49.20;;;;;;5048198;28;20048;-52
2022/06/16 03:00:08;;;;;;;4.70;2.65;;;19.50;49.70;;;;;;5041858;28;20043;-50
2022/06/16 03:02:46;;;;;;;3.70;2.28;;;19.40;49.70;;;;;;5031308;28;20141;-53
2022/06/16 03:05:16;;;;;;;2.95;2.42;;;19.30;49.70;;;;;;5052177;28;20098;-49
2022/06/16 03:07:47;;;;;;;2.80;2.33;;;19.20;50.10;;;;;;5043042;28;20049;-49
2022/06/16 03:11:03;;;;;;;3.20;2.83;;;19.10;50.00;;;;;;5057298;28;20131;-53
2022/06/16 03:13:11;;;;;;;5.93;2.85;;;19.00;50.00;;;;;;5064253;28;20048;-53
2022/06/16 03:15:37;;;;;;;4.22;2.45;;;18.90;50.10;;;;;;5047575;28;20500;-53
2022/06/16 03:18:09;;;;;;;5.43;3.50;;;18.80;50.20;;;;;;5059337;28;20076;-48
2022/06/16 03:20:37;;;;;;;3.55;2.80;;;18.80;50.60;;;;;;5032109;28;20677;-50
2022/06/16 03:23:04;;;;;;;3.60;2.90;;;18.70;50.50;;;;;;5055980;28;20488;-49
2022/06/16 03:25:35;;;;;;;3.50;3.13;;;18.60;50.70;;;;;;5053189;28;20047;-54
2022/06/16 03:28:05;;;;;;;3.17;2.88;;;18.60;51.30;;;;;;5078760;28;20052;-52
2022/06/16 03:30:35;;;;;;;3.53;2.58;;;18.60;51.20;;;;;;5060595;28;20044;-51
2022/06/16 03:33:08;;;;;;;2.88;2.67;;;18.50;51.40;;;;;;5050189;28;20121;-49
2022/06/16 03:35:36;;;;;;;3.33;2.70;;;18.40;51.50;;;;;;5082046;28;20136;-53
2022/06/16 03:38:07;;;;;;;3.53;2.90;;;18.40;51.80;;;;;;5066990;28;20036;-49
2022/06/16 03:40:34;;;;;;;4.72;3.25;;;18.40;51.60;;;;;;5085273;28;20125;-52
2022/06/16 03:43:11;;;;;;;5.13;3.10;;;18.30;51.60;;;;;;5063537;28;20443;-53
2022/06/16 03:45:46;;;;;;;3.50;3.17;;;18.30;52.00;;;;;;5068912;28;20032;-51
2022/06/16 03:48:15;;;;;;;3.35;3.05;;;18.20;51.80;;;;;;5050066;28;20044;-50
2022/06/16 03:50:49;;;;;;;6.43;3.65;;;18.20;52.00;;;;;;5051076;28;20048;-49
2022/06/16 03:53:17;;;;;;;3.60;3.30;;;18.20;52.40;;;;;;5050080;28;20118;-52
2022/06/16 03:55:52;;;;;;;4.93;3.10;;;18.20;52.20;;;;;;5051911;28;20632;-52
2022/06/16 03:58:23;;;;;;;2.95;2.72;;;18.10;52.20;;;;;;5051519;28;20126;-49
2022/06/16 04:00:53;;;;;;;4.78;2.95;;;18.10;52.30;;;;;;5069728;28;20045;-51
2022/06/16 04:06:12;;;;;;;7.32;3.60;;;18.10;52.50;;;;;;5055793;28;20492;-51
2022/06/16 04:08:40;;;;;;;5.47;3.35;;;18.10;52.60;;;;;;5071109;28;20048;-53
2022/06/16 04:11:27;;;;;;;3.40;3.05;;;18.00;52.60;;;;;;5066860;28;20124;-51
2022/06/16 04:14:10;;;;;;;3.38;3.08;;;18.00;52.80;;;;;;5052301;28;20140;-49
2022/06/16 04:16:49;;;;;;;3.70;3.10;;;18.00;52.90;;;;;;5050784;28;20049;-49
2022/06/16 04:19:24;;;;;;;3.78;2.53;;;18.00;53.70;;;;;;5068488;28;20048;-51
2022/06/16 04:22:01;;;;;;;4.05;3.15;;;18.00;53.10;;;;;;5051690;28;20052;-48
2022/06/16 04:24:37;;;;;;;4.20;3.47;;;18.00;53.30;;;;;;5052265;28;20055;-50
2022/06/16 04:27:05;;;;;;;3.55;3.00;;;18.00;53.30;;;;;;5070033;28;20036;-48
2022/06/16 04:29:35;;;;;;;5.22;2.97;;;18.00;53.50;;;;;;5053916;28;20041;-53
2022/06/16 04:32:05;;;;;;;3.10;2.80;;;18.00;53.60;;;;;;5054347;28;20075;-51
2022/06/16 04:34:43;;;;;;;4.30;3.47;;;18.00;54.10;;;;;;5051331;28;20044;-53
2022/06/16 04:37:13;;;;;;;3.95;2.97;;;18.00;53.90;;;;;;5068568;28;20044;-49
2022/06/16 04:39:54;;;;;;;4.85;3.22;;;18.00;54.10;;;;;;5067854;28;20094;-49
2022/06/16 04:42:24;;;;;;;3.45;3.15;;;18.10;54.40;;;;;;5076214;28;20043;-50
2022/06/16 04:44:52;;;;;;;7.18;3.67;;;18.10;54.30;;;;;;5061337;28;20044;-50
2022/06/16 04:47:19;;;;;;;4.05;3.65;;;18.10;54.20;;;;;;5069515;28;20041;-53
2022/06/16 04:49:52;;;;;;;6.07;3.83;;;18.10;54.30;;;;;;5052225;28;20055;-49
2022/06/16 04:52:19;;;;;;;6.38;3.40;;;18.10;54.10;;;;;;5061709;28;20460;-49
2022/06/16 04:54:50;;;;;;;4.00;3.63;;;18.20;53.90;;;;;;5052754;28;20040;-53
2022/06/16 04:57:37;;;;;;;4.35;3.70;;;18.20;53.90;;;;;;5069719;28;20047;-49
2022/06/16 05:00:32;;;;;;;4.80;3.10;;;18.30;54.40;;;;;;5060619;28;20455;-49
2022/06/16 05:03:17;;;;;;;4.18;3.10;;;18.30;53.50;;;;;;5076277;28;20040;-48
2022/06/16 05:05:59;;;;;;;7.72;3.40;;;18.40;53.60;;;;;;5069438;28;20043;-51
2022/06/16 05:08:52;;;;;;;6.28;3.15;;;18.40;53.20;;;;;;5062315;28;20055;-52
2022/06/16 05:11:38;;;;;;;5.47;3.88;;;18.50;52.90;;;;;;5063223;28;20055;-50
2022/06/16 05:14:18;;;;;;;4.50;3.65;;;18.60;52.70;;;;;;5070016;28;20463;-50
2022/06/16 05:16:52;;;;;;;5.45;3.78;;;18.60;52.50;;;;;;5067213;28;20099;-48
2022/06/16 05:19:47;;;;;;;3.38;3.08;;;18.60;52.40;;;;;;5056957;28;20059;-51
2022/06/16 05:22:44;;;;;;;4.65;3.22;;;18.70;52.30;;;;;;5059510;28;20526;-51
2022/06/16 05:25:32;;;;;;;5.60;3.40;;;18.70;52.10;;;;;;5062516;28;20043;-52
2022/06/16 05:28:10;;;;;;;6.18;3.90;;;18.80;51.90;;;;;;5064032;28;20420;-52
2022/06/16 05:31:01;;;;;;;4.85;3.33;;;18.80;52.00;;;;;;5064752;28;20072;-48
2022/06/16 05:33:36;;;;;;;4.30;3.08;;;18.90;51.90;;;;;;5079555;28;20041;-53
2022/06/16 05:36:21;;;;;;;4.22;3.80;;;18.90;51.70;;;;;;5060797;28;20060;-51
2022/06/16 05:39:00;;;;;;;4.60;2.50;;;19.00;51.10;;;;;;5056537;28;20136;-53
2022/06/16 05:41:47;;;;;;;3.35;3.05;;;19.00;50.90;;;;;;5058938;28;20139;-49
2022/06/16 05:44:37;;;;;;;3.40;3.00;;;19.10;51.70;;;;;;5063381;28;20047;-50
2022/06/16 05:47:11;;;;;;;3.00;2.63;;;19.10;50.30;;;;;;5057606;28;20053;-50
2022/06/16 05:49:44;;;;;;;4.22;3.10;;;19.20;50.20;;;;;;5062356;28;20064;-48
2022/06/16 05:52:18;;;;;;;5.00;2.95;;;19.30;50.00;;;;;;5086474;28;20102;-48
2022/06/16 05:55:00;;;;;;;3.45;2.33;;;19.30;50.50;;;;;;5028000;28;20420;-52
2022/06/16 05:57:30;;;;;;;3.20;2.05;;;19.30;49.80;;;;;;5060359;28;20044;-47
2022/06/16 06:00:08;;;;;;;2.90;2.37;;;19.30;49.60;;;;;;5083016;28;20072;-52
2022/06/16 06:02:43;;;;;;;3.50;2.65;;;19.40;49.50;;;;;;5068586;28;20524;-47
2022/06/16 06:05:15;;;;;;;4.00;2.50;;;19.50;49.30;;;;;;5060664;28;20556;-51
2022/06/16 06:16:26;;;;;;;2.67;2.20;;;19.60;48.80;;;;;;5072162;28;20078;-47
2022/06/16 06:19:23;;;;;;;3.88;2.50;;;19.60;48.90;;;;;;5073039;28;20134;-49
2022/06/16 06:21:58;;;;;;;2.15;1.95;;;19.60;48.50;;;;;;5064256;28;20044;-51
2022/06/16 06:24:27;;;;;;;3.65;3.10;;;19.70;48.60;;;;;;5068634;28;20052;-53
2022/06/16 06:26:56;;;;;;;5.50;3.13;;;19.70;48.00;;;;;;5061097;28;20044;-48
2022/06/16 06:29:23;;;;;;;3.95;2.70;;;19.80;47.80;;;;;;5039158;28;20044;-52
2022/06/16 06:31:50;;;;;;;4.28;2.42;;;19.80;48.00;;;;;;5051180;28;20060;-52
2022/06/16 06:34:18;;;;;;;4.95;2.65;;;19.80;48.00;;;;;;5031645;28;20052;-47
2022/06/16 06:36:44;;;;;;;4.43;2.40;;;19.80;47.60;;;;;;5039721;28;20474;-51
2022/06/16 06:39:12;;;;;;;4.70;2.50;;;19.80;47.60;;;;;;5051347;28;20044;-55
2022/06/16 06:41:39;;;;;;;4.82;2.42;;;19.80;47.50;;;;;;5052258;28;20035;-49
2022/06/16 06:44:06;;;;;;;4.95;2.75;;;19.90;47.20;;;;;;5051917;28;20174;-59
2022/06/16 06:46:33;;;;;;;3.15;2.53;;;19.90;47.40;;;;;;5063789;28;20033;-49
2022/06/16 06:49:02;;;;;;;3.78;2.28;;;19.90;47.30;;;;;;5055665;28;20059;-58
2022/06/16 06:51:31;;;;;;;4.10;2.05;;;19.90;47.00;;;;;;5061272;28;20132;-51
2022/06/16 06:53:58;;;;;;;4.15;2.38;;;19.90;47.20;;;;;;5059163;28;20417;-59
2022/06/16 06:56:25;;;;;;;2.90;2.20;;;19.90;46.70;;;;;;5057502;28;20048;-49
2022/06/16 06:58:54;;;;;;;3.92;1.60;;;19.90;46.50;;;;;;5061930;28;20079;-59
2022/06/16 07:01:21;;;;;;;4.07;1.25;;;20.00;46.50;;;;;;5059541;28;20450;-48
2022/06/16 07:03:49;;;;;;;2.50;1.38;;;20.00;46.20;;;;;;5065736;28;20094;-59
2022/06/16 07:06:18;;;;;;;2.63;1.27;;;20.00;46.00;;;;;;5055687;28;20044;-51
2022/06/16 07:08:46;;;;;;;2.08;1.25;;;20.10;45.50;;;;;;5065137;28;20093;-47
2022/06/16 07:11:13;;;;;;;3.13;1.40;;;20.20;45.50;;;;;;5057862;28;20079;-51
2022/06/16 07:13:40;;;;;;;1.40;0.98;;;20.20;45.30;;;;;;5065513;28;20064;-49
2022/06/16 07:16:09;;;;;;;2.00;1.20;;;20.30;44.80;;;;;;5059442;28;20503;-51
2022/06/16 07:18:36;;;;;;;1.85;1.10;;;20.30;44.70;;;;;;5066679;28;20090;-56
2022/06/16 07:21:04;;;;;;;3.50;1.15;;;20.30;45.30;;;;;;5042097;28;20569;-52
2022/06/16 07:23:30;;;;;;;1.48;1.20;;;20.40;44.80;;;;;;5065941;28;20040;-52
2022/06/16 07:25:57;;;;;;;2.75;1.33;;;20.40;44.40;;;;;;5057571;28;20044;-50
2022/06/16 07:28:24;;;;;;;2.15;1.10;;;20.50;44.10;;;;;;5063601;28;20411;-56
2022/06/16 07:30:51;;;;;;;1.55;1.30;;;20.50;44.30;;;;;;5060432;28;20044;-51
2022/06/16 07:33:25;;;;;;;2.10;1.17;;;20.60;44.40;;;;;;5069951;28;20059;-51
2022/06/16 07:35:53;;;;;;;1.20;1.05;;;20.60;44.00;;;;;;5054258;28;20124;-50
2022/06/16 07:38:20;;;;;;;3.58;1.05;;;20.70;44.60;;;;;;5066283;28;20045;-49
2022/06/16 07:40:47;;;;;;;2.50;1.08;;;20.70;43.90;;;;;;5060152;28;20040;-51
2022/06/16 07:43:14;;;;;;;2.25;1.00;;;20.70;43.90;;;;;;5060741;28;20033;-52
2022/06/16 07:45:41;;;;;;;1.20;1.02;;;20.70;43.80;;;;;;5057908;28;20037;-51
2022/06/16 07:48:08;;;;;;;1.20;1.10;;;20.70;43.90;;;;;;5059982;28;20037;-52
2022/06/16 07:50:36;;;;;;;2.92;1.20;;;20.80;44.10;;;;;;5044292;28;20075;-52
2022/06/16 07:53:07;;;;;;;3.40;1.30;;;20.90;44.00;;;;;;5053290;28;20036;-48
2022/06/16 07:55:34;;;;;;;2.72;1.25;;;20.90;43.90;;;;;;5059610;28;20443;-52
2022/06/16 07:58:01;;;;;;;1.88;1.25;;;20.90;43.60;;;;;;5063728;28;20044;-50
2022/06/16 08:00:32;;;;;;;2.95;1.33;;;21.00;43.80;;;;;;5057321;28;20131;-50
2022/06/16 08:02:59;;;;;;;3.28;1.30;;;21.00;43.50;;;;;;5068691;28;20036;-59
2022/06/16 08:05:27;;;;;;;2.88;1.60;;;21.10;43.60;;;;;;5053420;28;20039;-51
2022/06/16 08:07:53;;;;;;;5.57;1.70;;;21.10;43.40;;;;;;5064053;28;20044;-51
2022/06/16 08:10:23;;;;;;;1.98;1.63;;;21.10;44.00;;;;;;5062520;28;20514;-49
2022/06/16 08:12:49;;;;;;;1.92;1.67;;;21.20;44.20;;;;;;5068635;28;20036;-48
2022/06/16 08:15:17;;;;;;;1.60;1.00;;;21.20;43.90;;;;;;5058293;28;20491;-52
2022/06/16 08:17:46;;;;;;;2.85;1.50;;;21.30;44.00;;;;;;5068328;28;20048;-50
2022/06/16 08:20:14;;;;;;;3.22;1.75;;;21.30;43.60;;;;;;5061972;28;20523;-52
2022/06/16 08:22:42;;;;;;;1.10;1.05;;;21.30;43.30;;;;;;5065515;28;20040;-49
2022/06/16 08:25:12;;;;;;;2.47;1.60;;;21.40;42.90;;;;;;5057812;28;20123;-50
2022/06/16 08:27:41;;;;;;;2.75;1.13;;;21.50;43.00;;;;;;5061429;28;20040;-51
2022/06/16 08:30:12;;;;;;;2.00;1.00;;;21.50;42.50;;;;;;5057428;28;20070;-50
2022/06/16 08:32:40;;;;;;;3.38;1.23;;;21.60;42.60;;;;;;5065457;28;20503;-53
2022/06/16 08:35:07;;;;;;;2.78;1.25;;;21.60;42.70;;;;;;5057948;28;20056;-54
2022/06/16 08:37:35;;;;;;;0.95;0.80;;;21.60;42.00;;;;;;5060350;28;20038;-53
2022/06/16 08:40:04;;;;;;;1.40;1.10;;;21.60;42.00;;;;;;5059420;28;20098;-50
2022/06/16 08:42:38;;;;;;;2.25;1.08;;;21.70;41.50;;;;;;5066301;28;21269;-53
2022/06/16 08:45:10;;;;;;;1.60;0.88;;;21.80;41.60;;;;;;5059333;28;20032;-48
2022/06/16 08:47:39;;;;;;;1.80;0.80;;;21.80;40.90;;;;;;5041120;28;20385;-55
2022/06/16 08:50:39;;;;;;;1.17;0.80;;;21.80;41.20;;;;;;5059575;28;20099;-48
2022/06/16 08:53:37;;;;;;;1.63;1.50;;;22.00;41.30;;;;;;5066265;28;20047;-49
2022/06/16 08:56:22;;;;;;;1.40;0.95;;;21.90;41.20;;;;;;5059038;28;20044;-48
2022/06/16 08:59:16;;;;;;;1.27;1.00;;;22.00;40.80;;;;;;5048669;28;20049;-59
2022/06/16 09:01:55;;;;;;;1.83;1.10;;;22.00;40.80;;;;;;5061802;28;20119;-51
2022/06/16 09:04:43;;;;;;;2.00;0.82;;;22.00;41.10;;;;;;5039135;28;20537;-49
2022/06/16 09:07:43;;;;;;;1.30;0.95;;;22.10;40.10;;;;;;5067295;28;20047;-52
2022/06/16 09:10:24;;;;;;;2.65;0.98;;;22.10;39.70;;;;;;5060804;28;20511;-51
2022/06/16 09:13:27;;;;;;;2.60;1.55;;;22.20;40.50;;;;;;5064292;28;20044;-51
2022/06/16 09:16:26;;;;;;;2.22;1.00;;;22.20;40.30;;;;;;5056704;28;20045;-51
2022/06/16 09:19:03;;;;;;;1.02;1.00;;;22.20;39.60;;;;;;5063263;28;20048;-55
2022/06/16 09:21:56;;;;;;;1.50;0.73;;;22.20;40.00;;;;;;5064190;28;20049;-52
2022/06/16 09:24:46;;;;;;;1.65;0.88;;;22.30;39.50;;;;;;5021892;28;20056;-50
2022/06/16 09:27:16;;;;;;;2.28;0.80;;;22.30;39.60;;;;;;5069487;28;20090;-47
2022/06/16 09:30:09;;;;;;;2.70;1.63;;;22.30;40.10;;;;;;5054359;28;20520;-51
2022/06/16 09:32:58;;;;;;;2.10;0.90;;;22.40;39.50;;;;;;5064704;28;20048;-49
2022/06/16 09:35:43;;;;;;;2.58;1.20;;;22.50;39.90;;;;;;5058568;28;20040;-51
2022/06/16 09:38:18;;;;;;;2.08;0.88;;;22.50;39.50;;;;;;5054999;28;20094;-50
2022/06/16 09:40:53;;;;;;;2.50;1.00;;;22.50;39.80;;;;;;5063141;28;20040;-48
2022/06/16 09:43:35;;;;;;;0.88;0.80;;;22.60;40.50;;;;;;5069698;28;20067;-57
2022/06/16 09:46:28;;;;;;;1.27;0.75;;;22.70;40.00;;;;;;5068356;28;20036;-50
2022/06/16 09:49:13;;;;;;;3.05;1.30;;;22.70;39.40;;;;;;5066834;28;20136;-52
2022/06/16 09:52:09;;;;;;;2.40;1.00;;;22.70;39.40;;;;;;5063588;28;20045;-50
2022/06/16 09:55:03;;;;;;;2.28;1.05;;;22.80;39.50;;;;;;5069403;28;20117;-50
2022/06/16 09:57:49;;;;;;;1.50;0.90;;;22.80;39.30;;;;;;5066807;28;20040;-54
2022/06/16 10:00:33;;;;;;;1.63;0.93;;;22.80;39.60;;;;;;5069670;28;20060;-50
2022/06/16 10:03:13;;;;;;;2.20;1.00;;;22.90;39.30;;;;;;5068185;28;20535;-47
2022/06/16 10:06:30;;;;;;;2.72;1.10;;;22.90;39.40;;;;;;5062981;28;20041;-48
2022/06/16 10:09:08;;;;;;;3.15;1.35;;;22.80;40.10;;;;;;5052872;28;20094;-51
2022/06/16 10:11:59;;;;;;;3.55;1.38;;;23.00;39.60;;;;;;5066478;28;20052;-55
2022/06/16 10:14:46;;;;;;;1.08;0.98;;;23.00;39.50;;;;;;5039132;28;20803;-53
2022/06/16 10:17:20;;;;;;;1.20;1.10;;;23.10;39.70;;;;;;5043168;28;20063;-51
2022/06/16 10:19:52;;;;;;;3.33;1.55;;;23.20;39.90;;;;;;5055329;28;20033;-47
2022/06/16 10:22:22;;;;;;;3.60;1.33;;;23.20;40.00;;;;;;5065011;28;20032;-48
2022/06/16 10:24:54;;;;;;;2.03;1.33;;;23.20;39.60;;;;;;5053674;28;20098;-51
2022/06/16 10:27:24;;;;;;;2.05;1.25;;;23.20;40.70;;;;;;5067204;28;20036;-51
2022/06/16 10:29:55;;;;;;;3.33;1.30;;;23.30;40.10;;;;;;5058164;28;20048;-51
2022/06/16 10:32:44;;;;;;;2.05;1.05;;;23.30;39.70;;;;;;5068656;28;20109;-49
2022/06/16 10:35:17;;;;;;;2.53;1.20;;;23.40;40.10;;;;;;5058211;28;20686;-54
2022/06/16 10:37:47;;;;;;;1.83;1.40;;;23.40;39.40;;;;;;5061949;28;20044;-50
2022/06/16 10:40:18;;;;;;;3.08;1.58;;;23.50;39.90;;;;;;5057245;28;20050;-49
2022/06/16 10:42:56;;;;;;;1.75;1.60;;;23.50;40.00;;;;;;5064235;28;20040;-51
2022/06/16 10:45:29;;;;;;;4.93;1.58;;;23.60;39.60;;;;;;5056863;28;20048;-54
2022/06/16 10:48:19;;;;;;;2.50;1.48;;;23.60;39.60;;;;;;5065755;28;20083;-54
2022/06/16 10:50:49;;;;;;;2.28;1.30;;;23.70;39.30;;;;;;5056041;28;20104;-54
2022/06/16 10:53:24;;;;;;;4.97;1.52;;;23.70;39.00;;;;;;5061809;28;20097;-54
2022/06/16 10:55:56;;;;;;;3.63;1.30;;;23.80;39.80;;;;;;5055456;28;20047;-51
2022/06/16 10:58:26;;;;;;;4.47;1.35;;;23.80;39.30;;;;;;5063929;28;20796;-51
2022/06/16 11:01:02;;;;;;;1.33;1.23;;;23.90;40.00;;;;;;5057117;28;20082;-53
2022/06/16 11:03:44;;;;;;;4.22;1.30;;;23.90;40.70;;;;;;5065689;28;20115;-53
2022/06/16 11:06:18;;;;;;;1.40;1.30;;;24.00;41.30;;;;;;5055888;28;20047;-53
2022/06/16 11:08:58;;;;;;;3.40;1.38;;;24.10;40.70;;;;;;5058630;28;20045;-58
2022/06/16 11:11:52;;;;;;;1.23;1.13;;;24.20;39.30;;;;;;5044584;28;20041;-54
2022/06/16 11:14:41;;;;;;;2.55;1.20;;;24.30;39.40;;;;;;5036346;28;20050;-55
2022/06/16 11:17:18;;;;;;;1.30;0.88;;;24.30;39.40;;;;;;5064630;28;20106;-54
2022/06/16 11:19:58;;;;;;;1.67;1.38;;;24.40;39.10;;;;;;5049842;28;20695;-55
2022/06/16 11:22:38;;;;;;;1.30;1.00;;;24.40;39.30;;;;;;5059540;28;20487;-50
2022/06/16 11:25:16;;;;;;;1.50;1.27;;;24.50;39.60;;;;;;5055511;28;20107;-51
2022/06/16 11:27:50;;;;;;;1.83;1.30;;;24.50;38.70;;;;;;5056010;28;20037;-48
2022/06/16 11:30:43;;;;;;;2.30;1.35;;;24.60;38.60;;;;;;5052485;28;20052;-51
2022/06/16 11:36:45;;;;;;;2.00;1.08;;;24.80;38.20;;;;;;5052670;28;20049;-49
2022/06/16 11:39:30;;;;;;;2.08;1.27;;;24.90;38.60;;;;;;5053600;28;20051;-50
2022/06/16 11:41:59;;;;;;;2.80;1.40;;;24.90;38.40;;;;;;5062487;28;20057;-53
2022/06/16 11:44:37;;;;;;;1.73;1.58;;;24.90;38.20;;;;;;5056008;28;20064;-54
2022/06/16 11:47:40;;;;;;;2.55;1.55;;;25.00;38.00;;;;;;5027002;28;1100470;-53
2022/06/16 11:50:36;;;;;;;3.75;1.73;;;25.00;38.30;;;;;;5037998;28;20056;-57
2022/06/16 11:53:27;;;;;;;2.28;1.60;;;25.10;38.80;;;;;;5066667;28;20075;-50
2022/06/16 11:56:10;;;;;;;2.67;1.08;;;25.10;38.10;;;;;;5046049;28;20083;-49
2022/06/16 11:58:58;;;;;;;4.75;2.00;;;25.20;38.00;;;;;;5058796;28;20109;-49
2022/06/16 12:01:30;;;;;;;1.88;1.45;;;25.30;36.80;;;;;;5066912;28;20415;-50
2022/06/16 12:04:35;;;;;;;2.45;1.55;;;25.30;37.50;;;;;;5062594;28;20083;-55
2022/06/16 12:07:04;;;;;;;2.65;1.02;;;25.40;37.80;;;;;;5064937;28;20047;-48
2022/06/16 12:09:51;;;;;;;1.90;1.60;;;25.40;37.80;;;;;;5056910;28;20052;-51
2022/06/16 12:12:43;;;;;;;1.85;1.55;;;25.50;37.40;;;;;;5069320;28;20481;-53
2022/06/16 12:15:18;;;;;;;1.55;1.25;;;25.60;37.50;;;;;;5057833;28;20496;-51
2022/06/16 12:17:57;;;;;;;3.35;1.55;;;25.60;37.80;;;;;;5067799;28;20094;-51
2022/06/16 12:20:34;;;;;;;2.60;1.40;;;25.70;37.60;;;;;;5061220;28;20037;-49
2022/06/16 12:23:09;;;;;;;2.50;1.67;;;25.80;37.30;;;;;;5064898;28;20041;-50
2022/06/16 12:25:46;;;;;;;1.70;1.60;;;25.80;37.30;;;;;;5054398;28;20047;-51
2022/06/16 12:28:15;;;;;;;2.78;1.40;;;25.90;38.20;;;;;;5056909;28;20463;-47
2022/06/16 12:30:50;;;;;;;2.88;1.40;;;26.00;38.20;;;;;;5057642;28;20041;-53
2022/06/16 12:33:33;;;;;;;1.88;1.77;;;26.10;37.90;;;;;;5070522;28;20102;-51
2022/06/16 12:36:11;;;;;;;5.25;1.55;;;26.20;36.50;;;;;;5061218;28;20098;-52
2022/06/16 12:39:00;;;;;;;1.83;1.42;;;26.30;36.30;;;;;;5065886;28;20051;-52
2022/06/16 12:41:34;;;;;;;2.92;1.52;;;26.30;36.80;;;;;;5064619;28;20079;-52
2022/06/16 12:44:10;;;;;;;3.22;1.98;;;26.40;36.20;;;;;;5057041;28;20089;-48
2022/06/16 12:46:46;;;;;;;5.70;1.70;;;26.40;35.40;;;;;;5065845;28;20043;-50
2022/06/16 12:49:31;;;;;;;2.90;1.30;;;26.50;35.80;;;;;;5061552;28;20041;-52
2022/06/16 12:52:12;;;;;;;3.55;1.60;;;26.50;35.80;;;;;;5063038;28;20098;-46
2022/06/16 12:54:48;;;;;;;3.53;1.60;;;26.60;36.40;;;;;;5054139;28;20048;-52
2022/06/16 12:57:39;;;;;;;2.00;1.20;;;26.60;36.10;;;;;;5068564;28;20040;-52
2022/06/16 13:00:19;;;;;;;1.50;1.10;;;26.80;36.10;;;;;;5052681;28;20057;-50
2022/06/16 13:03:13;;;;;;;2.47;1.65;;;26.90;35.70;;;;;;5066800;28;20043;-50
2022/06/16 13:05:40;;;;;;;1.83;1.60;;;27.00;35.10;;;;;;5058428;28;20040;-53
2022/06/16 13:08:09;;;;;;;2.10;1.10;;;27.10;35.20;;;;;;5065309;28;20051;-50
2022/06/16 13:10:54;;;;;;;2.22;1.23;;;27.20;35.90;;;;;;5057834;28;20118;-51
2022/06/16 13:13:24;;;;;;;3.90;1.52;;;27.40;35.90;;;;;;5063340;28;20047;-52
2022/06/16 13:16:01;;;;;;;3.25;1.60;;;27.50;35.50;;;;;;5059457;28;20051;-47
2022/06/16 13:18:33;;;;;;;3.75;1.67;;;27.70;35.00;;;;;;5058870;28;20068;-52
2022/06/16 13:21:03;;;;;;;1.57;1.47;;;27.80;34.40;;;;;;5057126;28;20044;-52
2022/06/16 13:23:32;;;;;;;1.52;1.38;;;28.00;34.10;;;;;;5067741;28;20102;-51
2022/06/16 13:26:23;;;;;;;1.17;1.00;;;28.20;34.10;;;;;;5058385;28;20068;-50
2022/06/16 13:29:15;;;;;;;1.90;0.95;;;28.40;34.40;;;;;;5063498;28;20711;-48
2022/06/16 13:31:42;;;;;;;2.17;1.10;;;28.70;35.20;;;;;;5065695;28;20120;-52
2022/06/16 13:34:20;;;;;;;1.77;1.10;;;29.30;34.90;;;;;;5040570;28;20059;-49
2022/06/16 13:36:50;;;;;;;2.65;1.15;;;30.10;35.40;;;;;;5061608;28;20105;-52
2022/06/16 13:39:52;;;;;;;3.03;1.02;;;31.20;34.40;;;;;;5061495;28;20036;-51
2022/06/16 13:42:41;;;;;;;1.50;1.40;;;32.40;34.20;;;;;;5062092;28;20044;-53
2022/06/16 13:45:11;;;;;;;1.00;0.90;;;33.70;33.20;;;;;;5055096;28;20664;-49
2022/06/16 13:47:43;;;;;;;2.75;1.27;;;35.20;32.70;;;;;;5062429;28;20392;-54
2022/06/16 13:50:19;;;;;;;1.20;1.10;;;36.50;30.80;;;;;;5059940;28;20044;-50
2022/06/16 13:53:02;;;;;;;2.30;1.27;;;37.80;29.40;;;;;;5060780;28;20077;-53
2022/06/16 13:56:00;;;;;;;1.70;1.08;;;38.90;28.60;;;;;;5056534;28;20758;-54